ADDS METAR Data INFO
IDs: Format: Raw Decoded Include TAF

Data at: 0713 UTC 24 Jun 2018

KANK 240655Z AUTO 22010KT 10SM CLR 16/M07 A3009 RMK AO1 T01591067
KANK 240635Z AUTO 28005KT 10SM CLR 16/M06 A3009 RMK AO1 T01621063
KANK 240615Z AUTO 23008KT 10SM CLR 18/M08 A3009 RMK AO1 T01801080
KANK 240555Z AUTO 24009KT 10SM CLR 17/M07 A3009 RMK AO1 T01701069 10287 20169 402950085
KANK 240535Z AUTO 25011KT 10SM CLR 18/M07 A3009 RMK AO1 T01771074
KANK 240515Z AUTO 24007KT 10SM CLR 18/M07 A3009 RMK AO1 T01811075
KANK 240455Z AUTO 24009KT 10SM CLR 19/M08 A3009 RMK AO1 T01861080
KANK 240435Z AUTO 24008KT 10SM CLR 19/M08 A3009 RMK AO1 T01931083
KANK 240415Z AUTO 25007KT 10SM CLR 20/M09 A3009 RMK AO1 T01981090
KANK 240355Z AUTO 26008KT 10SM CLR 19/M07 A3009 RMK AO1 T01911075
KANK 240335Z AUTO 26007KT 10SM CLR 21/M08 A3009 RMK AO1 T02061085
KANK 240315Z AUTO 26006KT 10SM CLR 22/M08 A3009 RMK AO1 T02191085
KANK 240255Z AUTO 28007KT 10SM CLR 23/M09 A3009 RMK AO1 T02321086
KANK 240235Z AUTO 29007KT 10SM CLR 24/M09 A3009 RMK AO1 T02421092
KANK 240215Z AUTO 29009KT 10SM CLR 26/M09 A3008 RMK AO1 T02551090
KANK 240155Z AUTO 30012G18KT 10SM CLR 27/M10 A3007 RMK AO1 T02651098
KANK 240135Z AUTO 28011G22KT 10SM CLR 27/M10 A3007 RMK AO1 T02691099
KANK 240115Z AUTO 28012G26KT 10SM CLR 27/M11 A3007 RMK AO1 T02731108
KANK 240055Z AUTO 28013G22KT 10SM CLR 28/M10 A3007 RMK AO1 T02801099
KANK 240035Z AUTO 28014G17KT 10SM CLR 29/M09 A3007 RMK AO1 T02851091
KANK 240015Z AUTO 28016G25KT 10SM CLR 29/M09 A3008 RMK AO1 T02861092
KANK 232355Z AUTO 27020G26KT 10SM CLR 28/M10 A3009 RMK AO1 T02821097 10295 20254
KANK 232335Z AUTO 28016G21KT 10SM CLR 29/M09 A3009 RMK AO1 T02881093
KANK 232315Z AUTO 28011G28KT 10SM CLR 29/M10 A3009 RMK AO1 T02861099
KANK 232255Z AUTO 29017G21KT 10SM CLR 29/M10 A3009 RMK AO1 T02871102
KANK 232235Z AUTO 27017G29KT 10SM CLR 29/M10 A3010 RMK AO1 T02871101
KANK 232215Z AUTO 26020G28KT 10SM CLR 28/M10 A3010 RMK AO1 T02791104
KANK 232155Z AUTO 25018G28KT 10SM CLR 29/M10 A3010 RMK AO1 T02911098
KANK 232135Z AUTO 28020G31KT 10SM CLR 29/M11 A3011 RMK AO1 T02901109
KANK 232115Z AUTO 25017G22KT 10SM CLR 29/M10 A3011 RMK AO1 T02901105
KANK 232055Z AUTO 28010G21KT 230V310 10SM CLR 29/M09 A3011 RMK AO1 T02851094
KANK 232035Z AUTO 28017G26KT 10SM CLR 28/M11 A3011 RMK AO1 T02831106
KANK 232015Z AUTO 30016G29KT 10SM CLR 29/M12 A3011 RMK AO1 T02851124
KANK 231955Z AUTO 29016G29KT 10SM CLR 28/M10 A3012 RMK AO1 T02831103
KANK 231935Z AUTO 34019G27KT 260V360 10SM CLR 28/M12 A3012 RMK AO1 T02841118
KANK 231915Z AUTO 30014G24KT 230V340 10SM CLR 28/M11 A3013 RMK AO1 T02801115
KANK 231855Z AUTO 26012G25KT 220V280 10SM CLR 26/M11 A3015 RMK AO1 T02621109
KANK 231835Z AUTO 24014G21KT 10SM CLR 26/M11 A3015 RMK AO1 T02641112
KANK 231815Z AUTO 25011G19KT 10SM CLR 26/M09 A3017 RMK AO1 T02551093
KANK 231755Z AUTO 23015G21KT 10SM CLR 26/M09 A3017 RMK AO1 T02611095 10266 20091
KANK 231735Z AUTO 23016G21KT 10SM CLR 26/M09 A3017 RMK AO1 T02601092
KANK 231715Z AUTO 21014G21KT 10SM CLR 26/M11 A3017 RMK AO1 T02631110
KANK 231655Z AUTO 25013G21KT 10SM CLR 25/M10 A3017 RMK AO1 T02541104
KANK 231635Z AUTO 00000KT 10SM CLR 22/M04 A3018 RMK AO1 T02231040
KANK 231615Z AUTO 00000KT 10SM CLR 21/M04 A3019 RMK AO1 T02071042
KANK 231555Z AUTO 00000KT 10SM CLR 20/M03 A3019 RMK AO1 T01951033
KANK 231535Z AUTO 00000KT 10SM CLR 18/M04 A3021 RMK AO1 T01811037
KANK 231515Z AUTO 35005KT 10SM CLR 17/M03 A3022 RMK AO1 T01671034
KANK 231455Z AUTO 00000KT 10SM CLR 16/M03 A3022 RMK AO1 T01551033
KANK 231435Z AUTO 03003KT 10SM CLR 15/M03 A3023 RMK AO1 T01481031
KANK 231415Z AUTO 00000KT 10SM CLR 14/M03 A3023 RMK AO1 T01381030
KANK 231355Z AUTO 35003KT 10SM CLR 14/M03 A3024 RMK AO1 T01361032
KANK 231335Z AUTO 31005KT 10SM CLR 13/M03 A3024 RMK AO1 T01261034
KANK 231315Z AUTO 35003KT 10SM CLR 12/M03 A3024 RMK AO1 T01241033
KANK 231255Z AUTO 28003KT 10SM CLR 11/M04 A3023 RMK AO1 T01111036
KANK 231235Z AUTO 27004KT 10SM CLR 10/M02 A3024 RMK AO1 T00951023
KANK 231215Z AUTO 00000KT 10SM CLR 09/M02 A3024 RMK AO1 T00911023
KANK 231155Z AUTO 27004KT 10SM CLR 09/M03 A3024 RMK AO1 T00941027 10163 20085
KANK 231135Z AUTO 00000KT 10SM CLR 09/M03 A3024 RMK AO1 T00931035
KANK 231115Z AUTO 29003KT 10SM CLR 10/M03 A3024 RMK AO1 T00981026
KANK 231055Z AUTO 28007KT 10SM CLR 09/00 A3024 RMK AO1 T00871005
KANK 231035Z AUTO 24006KT 10SM CLR 09/M01 A3024 RMK AO1 T00921007
KANK 231015Z AUTO 27003KT 10SM CLR 11/M01 A3024 RMK AO1 T01051006
KANK 230955Z AUTO 00000KT 10SM CLR 11/M01 A3024 RMK AO1 T01111007
KANK 230935Z AUTO 28003KT 10SM CLR 10/01 A3023 RMK AO1 T00990008
KANK 230915Z AUTO 26005KT 10SM CLR 11/M03 A3023 RMK AO1 T01061030
KANK 230855Z AUTO 24006KT 10SM CLR 11/M02 A3023 RMK AO1 T01101016
KANK 230835Z AUTO 25003KT 10SM CLR 11/M02 A3023 RMK AO1 T01141023
KANK 230815Z AUTO 25006KT 10SM CLR 12/M04 A3023 RMK AO1 T01161036
KANK 230755Z AUTO 25007KT 10SM CLR 12/00 A3023 RMK AO1 T01190001
KANK 230735Z AUTO 00000KT 10SM CLR 13/M02 A3023 RMK AO1 T01271025
KANK 230715Z AUTO 00000KT 10SM CLR 13/M06 A3023 RMK AO1 T01251064
KANK 230655Z AUTO 23005KT 10SM CLR 15/M05 A3023 RMK AO1 T01531048
KANK 230635Z AUTO 24005KT 10SM CLR 15/M07 A3022 RMK AO1 T01511066
KANK 230615Z AUTO 25004KT 10SM CLR 15/M10 A3023 RMK AO1 T01531096
KANK 230555Z AUTO 23007KT 10SM CLR 15/M10 A3023 RMK AO1 T01521098 10289 20146 402990108
KANK 230535Z AUTO 25008KT 10SM CLR 16/M09 A3021 RMK AO1 T01601094
KANK 230515Z AUTO 25006KT 10SM CLR 17/M11 A3020 RMK AO1 T01711107
KANK 230455Z AUTO 24006KT 10SM CLR 17/M10 A3019 RMK AO1 T01681101
KANK 230435Z AUTO 26006KT 10SM CLR 17/M10 A3019 RMK AO1 T01741103
KANK 230415Z AUTO 27010KT 10SM CLR 19/M11 A3019 RMK AO1 T01931112
KANK 230355Z AUTO 26007G14KT 10SM CLR 21/M12 A3017 RMK AO1 T02071125
KANK 230335Z AUTO 26009KT 10SM CLR 20/M12 A3016 RMK AO1 T02031120
KANK 230315Z AUTO 27004KT 10SM CLR 22/M13 A3015 RMK AO1 T02161130
KANK 230255Z AUTO 27005KT 10SM CLR 23/M13 A3014 RMK AO1 T02301133
KANK 230235Z AUTO 29015G23KT 10SM CLR 24/M14 A3014 RMK AO1 T02441143
KANK 230215Z AUTO 29014G19KT 10SM CLR 26/M14 A3013 RMK AO1 T02551145
KANK 230155Z AUTO 31017G26KT 10SM CLR 27/M14 A3012 RMK AO1 T02651143
KANK 230135Z AUTO 29015G20KT 10SM CLR 27/M13 A3012 RMK AO1 T02701131
KANK 230115Z AUTO 32015G26KT 10SM CLR 27/M15 A3012 RMK AO1 T02731152
KANK 230055Z AUTO 30015G25KT 10SM CLR 28/M13 A3011 RMK AO1 T02771135
KANK 230035Z AUTO 30012G23KT 10SM CLR 29/M13 A3010 RMK AO1 T02851126
KANK 230015Z AUTO 29018G28KT 10SM CLR 28/M13 A3010 RMK AO1 T02831127
KANK 222355Z AUTO 30015G25KT 10SM CLR 28/M13 A3010 RMK AO1 T02831128 10299 20255
KANK 222335Z AUTO 26012G16KT 10SM CLR 29/M12 A3010 RMK AO1 T02861117
KANK 222315Z AUTO 27015G31KT 10SM CLR 29/M11 A3011 RMK AO1 T02851113
KANK 222255Z AUTO 27021G28KT 10SM CLR 29/M10 A3013 RMK AO1 T02851101
KANK 222235Z AUTO 28015G30KT 10SM CLR 29/M12 A3012 RMK AO1 T02901118
KANK 222215Z AUTO 29022G33KT 10SM CLR 29/M09 A3012 RMK AO1 T02851094
KANK 222155Z AUTO 27018G28KT 10SM CLR 29/M11 A3013 RMK AO1 T02931106
KANK 222135Z AUTO 27014G30KT 10SM CLR 29/M11 A3013 RMK AO1 T02921111
KANK 222115Z AUTO 29019G30KT 10SM CLR 30/M10 A3013 RMK AO1 T02951104
KANK 222055Z AUTO 29021G30KT 10SM CLR 30/M11 A3014 RMK AO1 T02961106
KANK 222035Z AUTO 27023G33KT 10SM CLR 29/M09 A3015 RMK AO1 T02941088
KANK 222015Z AUTO 30015G28KT 10SM CLR 29/M09 A3015 RMK AO1 T02901086
KANK 221955Z AUTO 29022G31KT 10SM CLR 29/M09 A3015 RMK AO1 T02861088
KANK 221935Z AUTO 28018G23KT 10SM CLR 29/M08 A3015 RMK AO1 T02931084
KANK 221915Z AUTO 28014G29KT 10SM CLR 29/M08 A3016 RMK AO1 T02891082